Tiempo atmosférico en la estación meteorológica de Calamocha, Teruel (890 m.)



Fecha
DESCASC
Temp. máxima en grados centígrados (hora)
DESCASC
Temp. mínima en grados centígrados (hora)
DESCASC
Temp. media en grados centígrados
DESCASC
Racha de viento máxima en m/sg (hora)
DESCASC
Velocidad máxima media en intervalos de 10 minutos(hora)
DESCASC
Precipitaciones diarias en mm
DESCASC
Precipitaciones de 00:00 a 06:00 en mm
DESCASC
Precipitaciones de 06:00 a 12:00 en mm
DESCASC
Precipitaciones de 12:00 a 18:00 en mm
DESCASC
Precipitaciones de 18:00 a 24:00 en mm
DESCASC
16-04-2019 20 (18:30) 8.5 (07:40) 14.3 9.44 (20:50) 6.39 (20:50) 0 0 0 0 0
15-04-2019 23.2 (17:00) 7 (07:40) 15.1 11.39 (18:40) 6.39 (18:40) 0.4 0 0 0 0.4
14-04-2019 22.5 (16:50) 1.8 (04:30) 12.1 9.17 (15:00) 4.17 (19:50) 0 0 0 0 0
13-04-2019 19.3 (17:50) -2.1 (-00:0) 8.6 5.83 (18:00) 2.5 (17:20) 0 0 0 0 0
12-04-2019 15.6 (18:20) 2 (00:00) 8.8 7.78 (12:20) 3.61 (19:40) 0 0 0 0 0
11-04-2019 12.8 (17:30) 2.4 (00:00) 7.6 9.72 (18:20) 4.72 (18:10) 0 0 0 0 0
10-04-2019 12 (17:00) 3.8 (00:00) 7.9 10 (11:20) 5 (10:20) 0.6 0.2 0 0.2 0.2
09-04-2019 11.2 (15:20) 2.4 (00:00) 6.8 13.06 (16:10) 5.56 (16:10) 5.2 2.6 0 1.8 0.8
08-04-2019 15.3 (17:40) 5.6 (00:00) 10.5 10.83 (17:40) 5.83 (15:40) 0.4 0.2 0.2 0 0
07-04-2019 12.2 (17:50) 3.2 (00:00) 7.7 11.39 (10:50) 5.83 (11:20) 0.2 0.2 0 0 0
06-04-2019 10 (16:00) 2.4 (00:00) 6.2 12.5 (15:30) 7.22 (12:50) 4.4 0 0 0 4.4
05-04-2019 11.5 (12:40) 2.7 (00:00) 7.1 14.72 (21:20) 6.67 (21:20) 4.2 0 0 0 4.2
04-04-2019 13 (19:00) -1.9 (-00:0) 5.6 6.94 (13:40) 3.61 (17:30) 0 0 0 0 0
03-04-2019 10.2 (11:40) 1.6 (23:30) 5.9 11.67 (20:20) 6.39 (20:20) 1 0 0 1 0
02-04-2019 16.5 (17:00) 6.9 (00:00) 11.7 10.28 (17:40) 5.83 (17:40) 2.8 0 0.4 0 2.4
01-04-2019 14.5 (15:10) 5.8 (00:00) 10.2 9.17 (16:00) 3.06 (20:10) 8.6 2.2 1 0.6 4.8
31-03-2019 9.1 (14:30) 2.1 (00:00) 5.6 3.33 (09:50) 1.94 (00:10) 13.4 0 0 7.2 6.2
30-03-2019 19 (16:20) -1.3 (-00:0) 8.9 10.28 (18:20) 6.67 (19:00) 0 0 0 0 0
29-03-2019 18.4 (16:00) -0.6 (-00:0) 8.9 9.17 (13:10) 5.28 (13:00) 0 0 0 0 0
28-03-2019 18.1 (15:50) -4.1 (-00:0) 7 6.39 (16:30) 3.61 (19:10) 0 0 0 0 0
27-03-2019 16.7 (16:30) -4.4 (-00:0) 6.2 9.72 (15:40) 4.17 (15:40) 0 0 0 0 0
26-03-2019 17.1 (14:50) -3.9 (-00:0) 6.6 8.33 (16:20) 3.89 (15:00) 0 0 0 0 0
25-03-2019 16.4 (16:10) -1.9 (-00:0) 7.2 8.89 (18:20) 5 (19:00) 0 0 0 0 0
24-03-2019 21 (15:00) -2.6 (-00:0) 9.2 8.06 (16:30) 4.44 (14:20) 0 0 0 0 0
23-03-2019 18.6 (15:40) -1.8 (-00:0) 8.4 9.17 (13:40) 5.28 (13:00) 0 0 0 0 0
22-03-2019 16.7 (15:50) -4.2 (-00:0) 6.3 8.89 (13:10) 5.83 (20:10) 0 0 0 0 0
21-03-2019 13.8 (16:00) -5.2 (-00:0) 4.3 6.67 (18:00) 3.89 (17:50) 0 0 0 0 0
20-03-2019 12 (15:20) -2.6 (-00:0) 4.7 7.5 (15:30) 3.89 (17:30) 0 0 0 0 0
19-03-2019 9.7 (16:50) 2 (00:00) 5.8 11.67 (13:00) 6.11 (15:00) 0.4 0.4 0 0 0

Gráficas

Temp. máximas Temp. mínimas Temp. medias Precipitaciones Rachas de viento máximas Velocidades máximas media en intervalos de 10 minutos

Datos horarios

Fecha y hora oficial Temperatura (ºC) Velocidad del viento (km/h) Dirección del viento Racha (km/h) Dirección de racha Precipitación (mm) Presión (hPa) Tendencia (hPa) Humedad (%)
2019-04-17 23:00:00 14 16 Sudoeste 27 Sudoeste 0 913.3 2.2 62
2019-04-17 22:00:00 15.6 14 Sudeste 28 Sudeste 0 911.9 1.1 54
2019-04-17 21:00:00 16.5 20 Sudeste 29 Sudeste 0 911.6 0.9 52
2019-04-17 20:00:00 18.3 11 Sur 33 Sudeste 0 911.1 0 48
2019-04-17 19:00:00 19.8 21 Sudeste 32 Sudeste 0 910.8 -0.9 44
2019-04-17 18:00:00 21 24 Sudeste 33 Sudeste 0 910.7 -1.5 39
2019-04-17 17:00:00 22.1 18 Sudeste 31 Sudeste 0 911.1 -1.6 35
2019-04-17 16:00:00 22.1 15 Sur 33 Sur 0 911.7 -1.3 38
2019-04-17 15:00:00 21.5 16 Sur 27 Sudeste 0 912.2 -1.7 34
2019-04-17 14:00:00 21 18 Sudeste 30 Sudeste 0 912.7 -1.7 34
2019-04-17 13:00:00 19.2 15 Sudoeste 30 Sudoeste 0 913 -1.6 41
2019-04-17 12:00:00 16.8 15 Sudoeste 24 Sudoeste 0 913.9 -0.8 49
2019-04-17 11:00:00 14.5 6 Sur 29 Sudoeste 0 914.4 -0.2 58
2019-04-17 10:00:00 11.9 17 Sudoeste 27 Sudoeste 0 914.6 -0.2 64
2019-04-17 09:00:00 10.4 11 Sudoeste 19 Sudoeste 0 914.7 -0.1 73
2019-04-17 08:00:00 8 9 Sudeste 15 Sur 0 914.6 -0.5 83
2019-04-17 07:00:00 8.3 8 Sur 28 Sudoeste 0 914.8 -1 81
2019-04-17 06:00:00 8.6 9 Este 15 Sudeste 0 914.8 -1.4 81
2019-04-17 05:00:00 8.8 9 Sudeste 20 Sur 0 915.1 -1.4 80
2019-04-17 04:00:00 9.7 11 Sur 23 Sudoeste 0 915.8 -0.3 78
2019-04-17 03:00:00 10.1 13 Sudoeste 23 Sudoeste 0 916.2 0.1 78
2019-04-17 02:00:00 10.6 10 Sudoeste 21 Sur 0 916.5 0.6 77
2019-04-17 01:00:00 11 7 Sudoeste 13 Sudoeste 0 916.1 0.6 75
2019-04-17 00:00:00 11.5 6 Sur 24 Este 0 916.1 1.1 73
2019-04-16 23:00:00 13 15 Sudeste 24 Este 0 915.9 1.3 68
2019-04-16 22:00:00 13.7 18 Este 30 Este 0 915.5 0.9 65
2019-04-16 21:00:00 14.9 22 Este 34 Este 0 915 0 55
2019-04-16 20:00:00 17.1 23 Este 32 Este 0 914.6 -0.8 47
2019-04-16 19:00:00 19.1 7 Este 17 Sudeste 0 914.6 -1.6 24
2019-04-16 18:00:00 19.7 8 Este 14 Sudeste 0 915 -1.7 26
2019-04-16 17:00:00 18.9 5 Este 17 Sudeste 0 915.4 -1.7 34
2019-04-16 16:00:00 19.2 8 Sudoeste 17 Sudeste 0 916.2 -1.3 38
2019-04-16 15:00:00 18 6 Sudeste 24 Sudoeste 0 916.7 -1.3 41
2019-04-16 14:00:00 17.6 7 Sur 17 Sudoeste 0 917.1 -0.9 42
2019-04-16 13:00:00 15.9 9 Sur 17 Sur 0 917.5 -0.4 51
2019-04-16 12:00:00 13.6 7 Sur 14 Sudoeste 0 918 0.4 60
2019-04-16 11:00:00 11.2 3 Nordeste 10 Nordeste 0 918 1 67
2019-04-16 10:00:00 10.2 4 Nordeste 9 Nordeste 0 917.9 1.7 75
2019-04-16 09:00:00 9 5 Norte 12 Nordeste 0 917.6 1.3 81
2019-04-16 08:00:00 8.5 3 Noroeste 13 Nordeste 0 917 1.2 84
2019-04-16 07:00:00 8.8 3 Norte 12 Noroeste 0 916.2 0.7 88
2019-04-16 06:00:00 8.8 3 Norte 12 Nordeste 0 916.3 1 89
2019-04-16 05:00:00 9.4 3 Noroeste 10 Noroeste 0 915.8 0.9 84
2019-04-16 04:00:00 9.9 4 Norte 17 Nordeste 0 915.5 1 80
2019-04-16 03:00:00 10.9 10 Nordeste 20 Norte 0 915.3 1.3 76
2019-04-16 02:00:00 12 4 Sur 19 Noroeste 0 914.9 1.3 65
2019-04-16 01:00:00 12.3 5 Noroeste 26 Noroeste 0 914.5 2.7 64
2019-04-16 00:00:00 13.4 15 Noroeste 34 Noroeste 0 914 3.3 65
2019-04-15 23:00:00 14.5 10 Noroeste 37 Noroeste 0 913.6 3.9 64
2019-04-15 22:00:00 16.5 15 Sudoeste 32 Sudoeste 0 911.8 2.2 46
2019-04-15 21:00:00 17 12 Sudoeste 30 Sur 0 910.7 1.1 63
2019-04-15 20:00:00 19.9 17 Sudoeste 39 Sudoeste 0.4 909.7 0 54
2019-04-15 19:00:00 23 19 Sudoeste 41 Sur 0 909.6 -0.8 34
2019-04-15 18:00:00 22.9 21 Oeste 40 Sur 0 909.6 -1.6 31
2019-04-15 17:00:00 23.2 16 Sur 32 Sur 0 909.7 -2.1 37
2019-04-15 16:00:00 22.2 16 Sudoeste 30 Sudoeste 0 910.4 -1.9 41
2019-04-15 15:00:00 21.4 16 Sur 31 Sur 0 911.2 -1.5 44
2019-04-15 14:00:00 21.3 17 Sur 33 Sur 0 911.8 -1.4 44
2019-04-15 13:00:00 20.6 19 Sur 34 Sur 0 912.3 -1.4 45
2019-04-15 12:00:00 20.1 18 Sur 33 Sur 0 912.7 -1.2 48
2019-04-15 11:00:00 17.6 8 Sur 20 Sur 0 913.2 -0.9 54
2019-04-15 10:00:00 13.3 6 Sur 12 Sudoeste 0 913.7 -0.3 70
2019-04-15 09:00:00 11.2 4 Sudoeste 13 Sudeste 0 913.9 -0.3 75
2019-04-15 08:00:00 7.7 11 Sudeste 14 Sudeste 0 914.1 -0.5 90
2019-04-15 07:00:00 7.3 2 Sudeste 10 Sudeste 0 914 -0.9 88
2019-04-15 06:00:00 8.6 8 Sudeste 12 Sudeste 0 914.2 -1.2 84
2019-04-15 05:00:00 9.3 10 Sudeste 14 Sudeste 0 914.6 -1.2 84
2019-04-15 04:00:00 8.6 8 Sudeste 10 Sudeste 0 914.9 -1.2 86
2019-04-15 03:00:00 8.2 6 Sudeste 11 Sudeste 0 915.4 -0.6 87
2019-04-15 02:00:00 8.9 3 Sur 8 Sudoeste 0 915.8 0 83
2019-04-15 01:00:00 9.6 6 Sur 13 Sur 0 916.1 0.6 81
2019-04-15 00:00:00 11.4 6 Sudeste 8 Sur 0 916 1.3 76
2019-04-14 23:00:00 13.1 3 Nordeste 6 Norte 0 915.8 1.6 68
2019-04-14 22:00:00 15.2 5 Norte 19 Norte 0 915.5 1.5 59
2019-04-14 21:00:00 16.8 9 Norte 24 Norte 0 914.7 0.9 52
2019-04-14 20:00:00 18.4 14 Nordeste 27 Norte 0 914.2 0.2 47
2019-04-14 19:00:00 20.3 9 Norte 28 Norte 0 914 -0.4 41
2019-04-14 18:00:00 21.9 9 Norte 30 Noroeste 0 913.8 -1 42
2019-04-14 17:00:00 21.8 8 Noroeste 29 Noroeste 0 914 -1 42
2019-04-14 16:00:00 21.5 12 Noroeste 29 Noroeste 0 914.4 -1 43
2019-04-14 15:00:00 21.3 14 Noroeste 33 Noroeste 0 914.8 -0.8 44
2019-04-14 14:00:00 20.4 12 Noroeste 31 Noroeste 0 915 -0.9 46
2019-04-14 13:00:00 18.7 13 Noroeste 28 Noroeste 0 915.4 -0.7 49
2019-04-14 12:00:00 16.6 7 Oeste 19 Sudoeste 0 915.6 -0.7 59
2019-04-14 11:00:00 14.3 10 Noroeste 24 Oeste 0 915.9 -0.2 65
2019-04-14 10:00:00 8.3 3 Sudoeste 10 Sudoeste 0 916.1 0.3 55
2019-04-14 09:00:00 5.4 0 Calma 5 Sudoeste 0 916.3 0.6 72
2019-04-14 08:00:00 3.2 4 Sudoeste 10 Sur 0 916.1 0.1 74
2019-04-14 07:00:00 2.4 3 Sur 8 Sudeste 0 915.8 -0.4 80
2019-04-14 06:00:00 2 3 Sudeste 8 Sudeste 0 915.7 -0.5 81
2019-04-14 05:00:00 1.9 2 Sudeste 4 Este 0 916 -0.5 81
2019-04-14 04:00:00 2.1 0 Calma 5 Norte 0 916.2 -0.4 80
2019-04-14 03:00:00 2.5 3 Nordeste 5 Noroeste 0 916.2 -0.7 80
2019-04-14 02:00:00 3.2 2 Este 5 Este 0 916.5 0 77
2019-04-14 01:00:00 4.1 2 Sudeste 4 Nordeste 0 916.6 0.4 73
2019-04-14 00:00:00 5.1 0 Calma 7 Sur 0 916.9 1.4 67
2019-04-13 23:00:00 6.9 4 Sur 6 Sur 0 916.5 1.4 60
2019-04-13 22:00:00 9.7 4 Oeste 8 Sur 0 916.2 1 47
2019-04-13 21:00:00 14.5 3 Oeste 6 Noroeste 0 915.5 0.2 32
2019-04-13 20:00:00 18.5 2 Oeste 12 Norte 0 915.1 -0.4 12
2019-04-13 19:00:00 18.7 5 Norte 18 Noroeste 0 915.2 -0.6 11
2019-04-13 18:00:00 18.6 8 Norte 21 Norte 0 915.3 -0.9 10
2019-04-13 17:00:00 18.6 7 Norte 19 Norte 0 915.5 -1.1 14
2019-04-13 16:00:00 18.2 7 Norte 16 Noroeste 0 915.8 -1.3 16
2019-04-13 15:00:00 17.5 4 Oeste 13 Oeste 0 916.2 -1.5 27
2019-04-13 14:00:00 15.5 5 Sudoeste 13 Este 0 916.6 -1.2 24
2019-04-13 13:00:00 13.4 4 Sudeste 9 Este 0 917.1 -0.6 35
2019-04-13 12:00:00 11 5 Este 10 Este 0 917.7 0.1 44
2019-04-13 11:00:00 8.3 5 Sur 11 Sur 0 917.8 0.5 52
2019-04-13 10:00:00 4.3 3 Sudoeste 8 Sur 0 917.7 1 75
2019-04-13 09:00:00 1.2 0 Calma 5 Sur 0 917.6 1.1 82
2019-04-13 08:00:00 -2.1 2 Sur 4 Sur 0 917.3 1.1 90
2019-04-13 07:00:00 -1.9 0 Calma 3 Nordeste 0 916.7 0.4 91
2019-04-13 06:00:00 -1.3 3 Oeste 5 Sudeste 0 916.5 0 90
2019-04-13 05:00:00 -0.8 4 Sudeste 6 Sudeste 0 916.2 -0.6 89
2019-04-13 04:00:00 -0.1 2 Nordeste 8 Sudeste 0 916.3 -0.3 91
2019-04-13 03:00:00 0.7 7 Sudeste 8 Sudeste 0 916.5 0 86
2019-04-13 02:00:00 2.1 3 Sur 7 Sur 0 916.8 0.6 81
2019-04-13 01:00:00 3.8 2 Sudoeste 4 Oeste 0 916.6 0.9 78
2019-04-13 00:00:00 5.4 3 Sudeste 8 Norte 0 916.5 1.4 72
2019-04-12 23:00:00 7.1 3 Norte 10 Norte 0 916.2 1.6 65
2019-04-12 22:00:00 8.5 4 Norte 14 Norte 0 915.7 1.2 57
2019-04-12 21:00:00 10.2 7 Norte 21 Norte 0 915.1 0.5 50
2019-04-12 20:00:00 12.4 11 Nordeste 23 Nordeste 0 914.6 -0.1 45
2019-04-12 19:00:00 14.8 5 Norte 18 Norte 0 914.5 -0.8 36
2019-04-12 18:00:00 15.3 5 Noroeste 19 Nordeste 0 914.6 -1 37
2019-04-12 17:00:00 14.9 6 Noroeste 19 Norte 0 914.7 -1.2 39
2019-04-12 16:00:00 14.2 5 Norte 18 Norte 0 915.3 -1 42
2019-04-12 15:00:00 13 8 Norte 18 Norte 0 915.6 -0.9 43
2019-04-12 14:00:00 12.2 7 Norte 22 Noroeste 0 915.9 -0.7 48
2019-04-12 13:00:00 10.3 8 Noroeste 28 Noroeste 0 916.3 0 57
2019-04-12 12:00:00 8.6 8 Noroeste 22 Noroeste 0 916.5 0.2 62
2019-04-12 11:00:00 7.2 7 Norte 19 Norte 0 916.6 0.4 71
2019-04-12 10:00:00 5 3 Sur 6 Sur 0 916.3 0.4 80
2019-04-12 09:00:00 3.6 3 Sudeste 6 Noroeste 0 916.3 0.6 84
2019-04-12 08:00:00 3.7 3 Oeste 9 Noroeste 0 916.2 0.2 82
2019-04-12 07:00:00 4.1 3 Noroeste 9 Sudoeste 0 915.9 -0.3 82
2019-04-12 06:00:00 4.1 5 Sudeste 8 Sur 0 915.7 -0.7 89
2019-04-12 05:00:00 3.6 3 Sur 8 Sur 0 916 -0.8 87
2019-04-12 04:00:00 2.9 2 Sur 7 Sur 0 916.2 -0.8 89
2019-04-12 03:00:00 2 4 Sudeste 6 Sudeste 0 916.4 -0.7 88
2019-04-12 02:00:00 2.9 4 Oeste 9 Sudoeste 0 916.8 0.1 87
2019-04-12 01:00:00 3.8 2 Noroeste 7 Noroeste 0 917 0.6 82
2019-04-12 00:00:00 5.2 3 Oeste 12 Norte 0 917.1 1.4 78
2019-04-11 23:00:00 5.7 2 Oeste 14 Norte 0 916.7 1.6 78
2019-04-11 22:00:00 6.6 6 Norte 17 Norte 0 916.4 1.7 71
2019-04-11 21:00:00 7.7 8 Norte 32 Norte 0 915.7 1.2 65
2019-04-11 20:00:00 9.7 10 Norte 31 Nordeste 0 915.1 0.8 59
2019-04-11 19:00:00 10.5 15 Norte 35 Norte 0 914.7 0.3 56
2019-04-11 18:00:00 11.1 15 Norte 33 Norte 0 914.5 -0.2 55
2019-04-11 17:00:00 12 9 Norte 33 Norte 0 914.3 -0.5 51
2019-04-11 16:00:00 11.5 12 Norte 31 Norte 0 914.4 -0.9 49
2019-04-11 15:00:00 12.4 13 Norte 32 Noroeste 0 914.7 -1 49
2019-04-11 14:00:00 11 11 Norte 29 Norte 0 914.8 -1 52
2019-04-11 13:00:00 10.8 11 Norte 27 Oeste 0 915.3 -0.3 56
2019-04-11 12:00:00 8.8 10 Noroeste 29 Oeste 0 915.7 0.2 57
2019-04-11 11:00:00 8.3 13 Noroeste 30 Noroeste 0 915.8 0.6 62
2019-04-11 10:00:00 6.8 6 Norte 15 Norte 0 915.6 0.7 73
2019-04-11 09:00:00 3.6 0 Calma 5 Sudeste 0 915.5 0.7 88
2019-04-11 08:00:00 2.7 3 Sur 5 Sudoeste 0 915.2 0.5 93
2019-04-11 07:00:00 2.6 0 Calma 6 Noroeste 0 914.9 0.4 91
2019-04-11 06:00:00 2.7 2 Norte 7 Norte 0 914.8 0.2 89
2019-04-11 05:00:00 2.8 2 Sur 9 Sur 0 914.7 0.1 86
2019-04-11 04:00:00 3.9 2 Sur 11 Noroeste 0 914.5 0.2 83
2019-04-11 03:00:00 4.1 4 Noroeste 9 Noroeste 0 914.6 0.6 84
2019-04-11 02:00:00 4.3 5 Oeste 18 Norte 0 914.6 0.6 81
2019-04-11 01:00:00 5.3 5 Noroeste 26 Norte 0 914.3 1 76
2019-04-11 00:00:00 5.9 14 Norte 36 Norte 0 914 1.9 74
2019-04-10 23:00:00 6.4 8 Norte 24 Noroeste 0 914 2.6 74
2019-04-10 22:00:00 6.7 4 Noroeste 18 Norte 0 913.3 2.1 75
2019-04-10 21:00:00 8.2 6 Norte 19 Noroeste 0 912.1 1.2 74
2019-04-10 20:00:00 9.1 4 Nordeste 7 Sudeste 0 911.4 1 72
2019-04-10 19:00:00 8.3 0 Calma 18 Noroeste 0.2 911.2 0.3 80
2019-04-10 18:00:00 8.5 10 Noroeste 26 Noroeste 0.2 910.9 -0.1 78
2019-04-10 17:00:00 12 11 Noroeste 23 Noroeste 0 910.4 0 58
2019-04-10 16:00:00 8.5 9 Oeste 31 Noroeste 0 910.9 -0.2 71
2019-04-10 15:00:00 8.2 10 Norte 30 Norte 0 911 -0.1 73
2019-04-10 14:00:00 11 9 Noroeste 24 Noroeste 0 910.4 -0.9 53
2019-04-10 13:00:00 8.3 13 Noroeste 30 Noroeste 0 911.1 0.2 65
2019-04-10 12:00:00 8.4 14 Noroeste 36 Noroeste 0 911.1 0.2 68
2019-04-10 11:00:00 7.5 13 Noroeste 33 Noroeste 0 911.3 0.8 70
2019-04-10 10:00:00 6.3 14 Noroeste 30 Noroeste 0 910.9 0.8 80
2019-04-10 09:00:00 4.5 4 Oeste 12 Noroeste 0 910.9 1 89
2019-04-10 08:00:00 3.8 4 Norte 14 Noroeste 0 910.5 0.6 90
2019-04-10 07:00:00 3.9 3 Norte 10 Oeste 0 910.1 0 90
2019-04-10 06:00:00 3.9 3 Oeste 11 Noroeste 0 909.9 -0.4 90
2019-04-10 05:00:00 4.3 5 Noroeste 19 Noroeste 0 909.9 -0.7 88
2019-04-10 04:00:00 4.7 4 Noroeste 14 Norte 0 910.1 -0.5 88
2019-04-10 03:00:00 4.8 6 Noroeste 18 Norte 0 910.3 -0.2 88
2019-04-10 02:00:00 5.3 11 Noroeste 27 Noroeste 0.2 910.6 0.2 85
2019-04-10 01:00:00 6.1 4 Oeste 14 Noroeste 0 910.6 0.1 81
2019-04-10 00:00:00 6 6 Noroeste 19 Noroeste 0 910.5 0.4 83
2019-04-09 23:00:00 5.9 6 Oeste 13 Oeste 0 910.4 0.6 83
2019-04-09 22:00:00 5.9 4 Oeste 28 Oeste 0 910.5 0.8 85
2019-04-09 21:00:00 5.7 9 Noroeste 24 Noroeste 0.2 910.1 1.3 86
2019-04-09 20:00:00 5.3 6 Norte 20 Noroeste 0.6 909.8 0.9 90
2019-04-09 19:00:00 5.9 9 Noroeste 46 Oeste 0 909.7 0.6 82
2019-04-09 18:00:00 8 15 Oeste 39 Sudoeste 0.6 908.8 -0.7 77
2019-04-09 17:00:00 7.8 3 Oeste 47 Oeste 1.2 908.9 -0.9 79
2019-04-09 16:00:00 10.7 14 Oeste 32 Sudoeste 0 909.1 -1.1 57
2019-04-09 15:00:00 10.9 14 Oeste 32 Oeste 0 909.5 -1 54
2019-04-09 14:00:00 10.3 13 Oeste 31 Oeste 0 909.8 -1.1 58
2019-04-09 13:00:00 10.2 13 Noroeste 38 Oeste 0 910.2 -0.9 58
2019-04-09 12:00:00 9.2 12 Oeste 30 Oeste 0 910.5 -0.7 64
2019-04-09 11:00:00 8.1 16 Oeste 32 Oeste 0 910.9 -0.5 71
2019-04-09 10:00:00 7 6 Oeste 23 Oeste 0 911.1 0.1 79
2019-04-09 09:00:00 5.2 8 Oeste 18 Oeste 0 911.2 0.4 88
2019-04-09 08:00:00 2.9 0 Calma 8 Sudeste 0 911.4 0.5 95
2019-04-09 07:00:00 2.5 6 Sudeste 12 Sudeste 0 911 -0.5 94
2019-04-09 06:00:00 2.5 3 Sudeste 12 Sur 0 910.8 -0.8 92
2019-04-09 05:00:00 3.6 6 Sur 12 Sur 0.2 910.9 -0.6 91
2019-04-09 04:00:00 3.9 3 Oeste 27 Oeste 1.6 911.5 0.5 91
2019-04-09 03:00:00 5.4 11 Noroeste 23 Noroeste 0.8 911.6 0.4 88
2019-04-09 02:00:00 5.5 6 Sudoeste 22 Sudoeste 0 911.5 0.3 82
2019-04-09 01:00:00 5.2 6 Sur 14 Sudeste 0 911 0.5 84
2019-04-09 00:00:00 6.3 4 Norte 27 Norte 0 911.2 1 79
2019-04-08 23:00:00 6.5 3 Norte 11 Sur 0 911.2 0.9 87
2019-04-08 22:00:00 7.1 3 Sur 9 Sudeste 0 910.5 0.6 83
2019-04-08 21:00:00 8.3 4 Nordeste 22 Noroeste 0 910.2 0.5 77
2019-04-08 20:00:00 10.8 9 Noroeste 21 Noroeste 0 910.3 0.5 73
2019-04-08 19:00:00 12.9 9 Noroeste 35 Oeste 0 909.9 -0.2 61
2019-04-08 18:00:00 15 13 Oeste 39 Oeste 0 909.7 -0.8 47
2019-04-08 17:00:00 13.8 14 Oeste 36 Oeste 0 909.8 -0.9 54
2019-04-08 16:00:00 13.1 20 Oeste 37 Oeste 0 910.1 -1 60
2019-04-08 15:00:00 13.9 15 Oeste 37 Oeste 0 910.5 -0.7 56
2019-04-08 14:00:00 13.1 18 Oeste 35 Oeste 0 910.7 -0.4 65
2019-04-08 13:00:00 11.5 16 Oeste 34 Oeste 0 911.1 0 73
2019-04-08 12:00:00 9.9 2 Noroeste 17 Noroeste 0.2 911.2 0.1 82
2019-04-08 11:00:00 9.2 6 Oeste 21 Oeste 0 911.1 0.4 80
2019-04-08 10:00:00 9.1 5 Oeste 17 Oeste 0 911.1 0.6 82
2019-04-08 09:00:00 8.2 6 Oeste 12 Sudoeste 0 911.1 0.6 83
2019-04-08 08:00:00 6.3 7 Sudoeste 13 Sudoeste 0 910.7 0.4 86
2019-04-08 07:00:00 6.2 9 Sudoeste 13 Sudoeste 0 910.5 -0.2 85
2019-04-08 06:00:00 5.7 2 Norte 6 Norte 0 910.5 -0.7 89
2019-04-08 05:00:00 5.8 2 Sur 10 Sudoeste 0 910.3 -1.6 88
2019-04-08 04:00:00 5.8 4 Sudoeste 6 Sudoeste 0.2 910.7 -1.5 87
2019-04-08 03:00:00 5.9 5 Sur 13 Sur 0 911.2 -1.1 89
2019-04-08 02:00:00 6.2 6 Sudoeste 14 Sudoeste 0 911.9 -0.2 83
2019-04-08 01:00:00 6.9 9 Sudoeste 20 Sudoeste 0 912.2 0.9 78
2019-04-08 00:00:00 7.3 6 Oeste 24 Oeste 0 912.3 1.4 70
2019-04-07 23:00:00 8.1 16 Oeste 31 Oeste 0 912.1 1.6 65
2019-04-07 22:00:00 8.7 6 Sudoeste 12 Oeste 0 911.3 1.2 55
2019-04-07 21:00:00 8.8 5 Oeste 14 Sudoeste 0 910.9 1.2 53
2019-04-07 20:00:00 9.8 2 Noroeste 16 Noroeste 0 910.5 0.9 53
2019-04-07 19:00:00 10.6 7 Noroeste 23 Noroeste 0 910.1 0.6 48
2019-04-07 18:00:00 11.4 9 Noroeste 32 Noroeste 0 909.7 0.1 45
2019-04-07 17:00:00 11.7 10 Noroeste 32 Noroeste 0 909.6 0.1 43
2019-04-07 16:00:00 10.2 14 Noroeste 34 Noroeste 0 909.5 0.5 49
2019-04-07 15:00:00 8.5 17 Noroeste 31 Noroeste 0 909.6 1.1 56
2019-04-07 14:00:00 7.4 14 Noroeste 36 Oeste 0 909.5 1.7 60
2019-04-07 13:00:00 7.8 16 Noroeste 36 Noroeste 0 909 1.9 60
2019-04-07 12:00:00 5.9 19 Noroeste 41 Oeste 0 908.5 2.1 64
2019-04-07 11:00:00 5.1 19 Noroeste 41 Noroeste 0 907.8 2.3 70
2019-04-07 10:00:00 4.4 11 Noroeste 21 Oeste 0 907.1 2.3 77
2019-04-07 09:00:00 3.6 5 Oeste 17 Oeste 0 906.4 2.1 85
2019-04-07 08:00:00 3.4 8 Oeste 14 Noroeste 0 905.5 1.7 83
2019-04-07 07:00:00 3.4 0 Calma 13 Oeste 0 904.8 1.5 83
2019-04-07 06:00:00 3.4 6 Oeste 18 Noroeste 0 904.3 1.1 83
2019-04-07 05:00:00 3.6 6 Noroeste 30 Oeste 0 903.8 0.6 82
2019-04-07 04:00:00 3.6 8 Oeste 26 Oeste 0 903.3 -0.2 84
2019-04-07 03:00:00 4 8 Oeste 27 Noroeste 0 903.2 0.1 85
2019-04-07 02:00:00 3.7 8 Oeste 20 Oeste 0.2 903.2 0.4 88
2019-04-07 01:00:00 3.7 6 Oeste 17 Oeste 0 903.5 0.6 88
2019-04-07 00:00:00 3.2 3 Oeste 9 Sudeste 0 903.1 0.4 93
2019-04-06 23:00:00 3 3 Sudeste 10 Sur 0 902.8 0.9 95
2019-04-06 22:00:00 3 3 Sur 16 Sudoeste 0.4 902.9 0.9 93
2019-04-06 21:00:00 3 8 Sudoeste 26 Sudoeste 2.6 902.7 1.7 92
2019-04-06 20:00:00 3.5 11 Sur 21 Sudoeste 0.2 901.9 1.6 90
2019-04-06 19:00:00 3.3 15 Oeste 43 Oeste 1.2 902 1.5 89
2019-04-06 18:00:00 6 22 Noroeste 42 Noroeste 0 901 0.4 75
2019-04-06 17:00:00 9.8 18 Oeste 39 Oeste 0 900.3 -0.7 49
2019-04-06 16:00:00 9.9 19 Oeste 45 Oeste 0 900.5 -1.2 50
2019-04-06 15:00:00 8.5 21 Sudoeste 38 Oeste 0 900.6 -0.9 56
2019-04-06 14:00:00 7.8 17 Oeste 40 Oeste 0 901 -0.4 59
2019-04-06 13:00:00 6.4 25 Oeste 43 Oeste 0 901.7 0.6 64
2019-04-06 12:00:00 5.9 18 Oeste 37 Oeste 0 901.5 0.7 65
2019-04-06 11:00:00 5.6 17 Oeste 41 Oeste 0 901.4 1.2 67
2019-04-06 10:00:00 4 14 Oeste 45 Oeste 0 901.1 1.4 76
2019-04-06 09:00:00 3.7 6 Sudoeste 13 Sur 0 900.8 1.2 80
2019-04-06 08:00:00 2.7 4 Sur 19 Sudoeste 0 900.2 0.5 85
2019-04-06 07:00:00 3.3 12 Oeste 22 Oeste 0 899.7 0.2 81
2019-04-06 06:00:00 3.2 8 Sudoeste 15 Sudoeste 0 899.6 0.2 81
2019-04-06 05:00:00 2.7 5 Sudoeste 20 Oeste 0 899.7 0.3 84
2019-04-06 04:00:00 2.8 6 Oeste 39 Oeste 0 899.5 0.1 81
2019-04-06 03:00:00 3.1 14 Oeste 36 Sudoeste 0 899.4 0.2 81
2019-04-06 02:00:00 3.3 10 Oeste 36 Oeste 0 899.4 0.3 82
2019-04-06 01:00:00 3.3 10 Oeste 29 Oeste 0 899.4 0.6 86
2019-04-06 00:00:00 3.4 12 Sudoeste 21 Oeste 0 899.2 1.7 88
2019-04-05 23:00:00 3.1 6 Oeste 22 Oeste 0 899.1 2.8 90
2019-04-05 22:00:00 2.9 8 Oeste 53 Oeste 1.6 898.8 2.1 91
2019-04-05 21:00:00 5 18 Oeste 43 Oeste 1.2 897.5 0.2 81
2019-04-05 20:00:00 6.5 3 Noroeste 6 Noroeste 0 896.3 -1.3 88
2019-04-05 19:00:00 6.5 2 Sudeste 46 Sudoeste 1.4 896.7 -1.3 81
2019-04-05 18:00:00 8.6 16 Sur 32 Sur 0 897.3 -0.8 66
2019-04-05 17:00:00 8.8 18 Sur 34 Sudoeste 0 897.6 -0.9 61
2019-04-05 16:00:00 9 18 Sur 39 Sur 0 898 -0.9 67
2019-04-05 15:00:00 10.4 16 Sudoeste 31 Sudoeste 0 898.1 -1.4 54
2019-04-05 14:00:00 9.9 17 Sudoeste 32 Sudoeste 0 898.5 -0.7 55
2019-04-05 13:00:00 10.9 17 Sudoeste 32 Sudoeste 0 898.9 -0.2 53
2019-04-05 12:00:00 10.3 17 Sudoeste 33 Sudoeste 0 899.5 0.2 54
2019-04-05 11:00:00 9.7 17 Sur 28 Sudoeste 0 899.2 -0.2 54
2019-04-05 10:00:00 8.3 15 Sur 28 Sudoeste 0 899.1 0 57
2019-04-05 09:00:00 5.7 10 Sudoeste 19 Sudoeste 0 899.3 0.5 77
2019-04-05 08:00:00 4.9 9 Sudeste 18 Sudoeste 0 899.4 0.4 79
2019-04-05 07:00:00 6.3 11 Sudoeste 21 Sudoeste 0 899.1 -0.2 78
2019-04-05 06:00:00 6.4 5 Sudoeste 19 Sudoeste 0 898.8 -1 77
2019-04-05 05:00:00 6.7 11 Sudoeste 21 Sur 0 899 -1 75
2019-04-05 04:00:00 6.4 11 Sudoeste 26 Sudoeste 0 899.3 -0.9 77
2019-04-05 03:00:00 4.6 4 Sur 11 Sur 0 899.8 -0.8 74
2019-04-05 02:00:00 2.9 5 Sudeste 10 Sudeste 0 900 -0.9 73
2019-04-05 01:00:00 3.5 7 Sudeste 13 Sur 0 900.2 -0.7 71
2019-04-05 00:00:00 4.5 3 Sur 8 Sur 0 900.6 0.2 67
2019-04-04 23:00:00 6.1 5 Sur 8 Sur 0 900.9 0.8 60
2019-04-04 22:00:00 7.8 3 Sudoeste 6 Sur 0 900.9 0.6 45
2019-04-04 21:00:00 8.9 5 Norte 10 Norte 0 900.4 -0.1 42
2019-04-04 20:00:00 11.2 6 Oeste 14 Sudoeste 0 900.1 -0.7 36
2019-04-04 19:00:00 13 5 Sudoeste 15 Sudeste 0 900.3 -1.5 32
2019-04-04 18:00:00 12.5 8 Sur 19 Sudeste 0 900.5 -2 32
2019-04-04 17:00:00 11.6 4 Sudeste 21 Oeste 0 900.8 -2.2 31
2019-04-04 16:00:00 11.3 9 Oeste 21 Oeste 0 901.8 -1.5 34
2019-04-04 15:00:00 10.2 6 Oeste 22 Noroeste 0 902.5 -1.2 41
2019-04-04 14:00:00 8.7 9 Noroeste 25 Noroeste 0 903 -0.8 41
2019-04-04 13:00:00 7.2 8 Norte 19 Noroeste 0 903.3 -0.2 49
2019-04-04 12:00:00 5.7 6 Noroeste 22 Oeste 0 903.7 0.2 55
2019-04-04 11:00:00 4.1 9 Oeste 19 Oeste 0 903.8 0.9 63
2019-04-04 10:00:00 2.6 5 Noroeste 17 Noroeste 0 903.5 1 68
2019-04-04 09:00:00 1.1 4 Noroeste 14 Norte 0 903.5 1.4 75
2019-04-04 08:00:00 -0.5 8 Norte 16 Norte 0 902.9 0.9 80
2019-04-04 07:00:00 -0.9 4 Norte 11 Norte 0 902.5 0.2 87
2019-04-04 06:00:00 -1.8 2 Sudeste 8 Sudeste 0 902.1 -0.8 97
2019-04-04 05:00:00 -1.6 3 Sudeste 5 Sudeste 0 902 -1.6 95
2019-04-04 04:00:00 -1.2 3 Sudeste 4 Sudeste 0 902.3 -1.6 96
2019-04-04 03:00:00 -0.6 3 Este 5 Este 0 902.9 -1.3 95
2019-04-04 02:00:00 -0.1 0 Calma 8 Norte 0 903.6 -0.8 94
2019-04-04 01:00:00 0.9 2 Este 6 Sur 0 903.9 -0.3 91
2019-04-04 00:00:00 1.7 3 Sudeste 6 Sur 0 904.2 0.7 90
2019-04-03 23:00:00 2 0 Calma 15 Norte 0 904.4 1.5 87
2019-04-03 22:00:00 2.3 10 Norte 24 Norte 0 904.2 1.8 87
2019-04-03 21:00:00 2.4 9 Norte 42 Nordeste 0 903.5 1 88
2019-04-03 20:00:00 4.6 18 Nordeste 35 Nordeste 0 902.9 -0.2 83
2019-04-03 19:00:00 6.7 3 Noroeste 6 Este 0 902.4 -1.2 83
2019-04-03 18:00:00 6.2 3 Norte 8 Este 0 902.5 -1.3 84
2019-04-03 17:00:00 5.8 3 Oeste 10 Este 0.2 903.1 -0.9 86
2019-04-03 16:00:00 5.7 8 Norte 19 Norte 0.8 903.6 -0.9 89
2019-04-03 15:00:00 7.1 11 Norte 23 Norte 0 903.8 -1.6 84
2019-04-03 14:00:00 9.2 9 Norte 20 Norte 0 904 -1.7 69
2019-04-03 13:00:00 9.9 8 Norte 22 Norte 0 904.5 -1.7 69
2019-04-03 12:00:00 10 8 Norte 17 Noroeste 0 905.4 -1.1 73
2019-04-03 11:00:00 9.6 4 Noroeste 14 Oeste 0 905.7 -1.1 78
2019-04-03 10:00:00 8 4 Sudoeste 8 Sudoeste 0 906.2 -1 85
2019-04-03 09:00:00 6.9 4 Sudeste 11 Sudeste 0 906.5 -1.2 90
2019-04-03 08:00:00 6.4 8 Sudeste 12 Sudeste 0 906.8 -1.4 91
2019-04-03 07:00:00 6.6 6 Sur 14 Sudoeste 0 907.2 -1.7 89
2019-04-03 06:00:00 6.3 6 Sur 10 Sur 0 907.7 -1.9 91
2019-04-03 05:00:00 5.9 4 Sudeste 8 Sur 0 908.2 -2.3 93
2019-04-03 04:00:00 5.4 6 Sudeste 9 Sudeste 0 908.9 -2.3 93
2019-04-03 03:00:00 6.5 5 Sudeste 6 Sudeste 0 909.6 -2 91
2019-04-03 02:00:00 7.6 4 Sudeste 9 Este 0 910.5 -1.3 89
2019-04-03 01:00:00 7.8 3 Sudeste 7 Sudeste 0 911.2 -0.8 92
2019-04-03 00:00:00 7.6 2 Este 9 Este 0 911.6 -0.2 93
2019-04-02 23:00:00 8 4 Sur 10 Sudeste 0 911.8 0.1 92
2019-04-02 22:00:00 7.8 4 Sudeste 10 Sur 0 912 -0.2 90
2019-04-02 21:00:00 9 4 Sudoeste 12 Oeste 0 911.8 -0.3 88
2019-04-02 20:00:00 10.1 9 Sudeste 21 Este 0 911.7 0.6 82
2019-04-02 19:00:00 9.3 6 Sur 22 Noroeste 2.4 912.2 0.2 87
2019-04-02 18:00:00 10.6 8 Norte 37 Norte 0 912.1 -0.7 70
2019-04-02 17:00:00 16.5 4 Sur 15 Sur 0 911.1 -2 39
2019-04-02 16:00:00 15.8 6 Sudoeste 13 Sur 0 912 -1.8 47
2019-04-02 15:00:00 13.3 6 Norte 18 Norte 0 912.8 -1.5 70
2019-04-02 14:00:00 15.7 6 Noroeste 18 Norte 0 913.1 -1.1 63
2019-04-02 13:00:00 13.2 4 Noroeste 17 Noroeste 0 913.8 -0.3 67
2019-04-02 12:00:00 12.9 5 Oeste 10 Noroeste 0 914.3 0.5 68
2019-04-02 11:00:00 10.8 3 Norte 10 Sur 0 914.2 0.5 78
2019-04-02 10:00:00 9.1 5 Sur 9 Sur 0 914.1 0.5 89
2019-04-02 09:00:00 7.5 2 Sur 19 Sudeste 0 913.8 0.5 92
2019-04-02 08:00:00 7.4 7 Sur 12 Sur 0.4 913.7 0 94
2019-04-02 07:00:00 7.6 6 Sur 13 Sur 0 913.6 -0.2 91
2019-04-02 06:00:00 7.4 8 Sur 14 Sur 0 913.3 -0.6 95
2019-04-02 05:00:00 7.3 6 Sur 9 Sur 0 913.7 -0.5 97
2019-04-02 04:00:00 7.1 4 Sur 7 Sur 0 913.8 -0.4 94
2019-04-02 03:00:00 8 5 Sudeste 10 Sudeste 0 913.9 -0.2 93
2019-04-02 02:00:00 8.3 5 Sudeste 9 Sur 0 914.2 0 95
2019-04-02 01:00:00 8.3 6 Sudeste 9 Sudeste 0 914.2 0.3 93
2019-04-02 00:00:00 8.9 6 Sudeste 7 Sudeste 0 914.1 0.8 94
2019-04-01 23:00:00 9 4 Sudeste 6 Este 0.2 914.2 1.4 93
2019-04-01 22:00:00 8.9 2 Oeste 9 Sudeste 0 913.9 1.2 94
2019-04-01 21:00:00 9.3 5 Este 17 Este 0 913.3 0.9 90
2019-04-01 20:00:00 9.5 10 Este 14 Este 2.6 912.8 0.5 94
2019-04-01 19:00:00 9.8 5 Noroeste 14 Noroeste 2 912.7 0.7 92
2019-04-01 18:00:00 11.3 3 Norte 11 Norte 0.2 912.4 0 87
2019-04-01 17:00:00 11.5 6 Oeste 22 Oeste 0.4 912.3 -0.7 80
2019-04-01 16:00:00 13.8 10 Oeste 33 Oeste 0 912 -1.4 69
2019-04-01 15:00:00 14.1 8 Sudoeste 14 Oeste 0 912.4 -1.2 68
2019-04-01 14:00:00 12.9 5 Sur 11 Sudeste 0 913 -0.4 75
2019-04-01 13:00:00 11.5 4 Sudoeste 10 Sudoeste 0 913.4 0.4 80
2019-04-01 12:00:00 10.3 3 Oeste 10 Este 0 913.6 0.9 83
2019-04-01 11:00:00 8.7 6 Este 12 Este 0 913.4 1 89
2019-04-01 10:00:00 7.6 8 Este 14 Este 0 913 0.8 93
2019-04-01 09:00:00 6.4 0 Calma 4 Norte 0.2 912.7 0.6 98
2019-04-01 08:00:00 5.9 2 Noroeste 5 Norte 0.4 912.4 0.3 98
2019-04-01 07:00:00 5.9 3 Noroeste 6 Norte 0.4 912.2 -0.1 97
2019-04-01 06:00:00 5.9 3 Norte 10 Noroeste 0 912.1 -0.4 98
2019-04-01 05:00:00 6.2 4 Norte 10 Noroeste 0 912.1 -0.7 98
2019-04-01 04:00:00 6.2 0 Calma 9 Norte 0.2 912.3 -0.6 97
2019-04-01 03:00:00 6.2 3 Norte 8 Norte 0.4 912.5 -0.6 98
2019-04-01 02:00:00 6.2 3 Norte 12 Noroeste 1 912.8 -0.4 98
2019-04-01 01:00:00 6.3 3 Norte 10 Norte 0.6 912.9 -0.1 97
2019-04-01 00:00:00 6.5 3 Norte 6 Norte 1 913.1 0.5 96
2019-03-31 23:00:00 6.7 3 Noroeste 6 Norte 1.2 913.2 0.8 96
2019-03-31 22:00:00 6.8 2 Noroeste 5 Noroeste 1.2 913 0.6 95
2019-03-31 21:00:00 7 3 Norte 10 Este 0.6 912.6 0.2 91
2019-03-31 20:00:00 7.2 4 Norte 12 Norte 0.4 912.4 -0.1 94
2019-03-31 19:00:00 7.7 3 Norte 8 Norte 1.8 912.4 -0.5 94
2019-03-31 18:00:00 7.8 4 Noroeste 8 Noroeste 2.8 912.4 -0.9 92
2019-03-31 17:00:00 8 3 Noroeste 6 Este 2.4 912.5 -1.4 91
2019-03-31 16:00:00 8.2 3 Noroeste 10 Este 1.4 912.9 -1.4 87
2019-03-31 15:00:00 8.5 7 Nordeste 11 Este 0.4 913.3 -0.9 75
2019-03-31 14:00:00 8.7 2 Norte 6 Este 0 913.9 -0.4 81
2019-03-31 13:00:00 8.2 2 Norte 5 Sur 0.2 914.3 0 73
2019-03-31 12:00:00 7.6 3 Sur 10 Sudoeste 0 914.2 0.1 77
2019-03-31 11:00:00 6.8 3 Oeste 9 Sudeste 0 914.3 0.5 77
2019-03-31 10:00:00 5.2 6 Sudeste 12 Sur 0 914.3 0.3 81
2019-03-31 09:00:00 3.3 5 Sur 7 Sur 0 914.1 -0.1 86
2019-03-31 08:00:00 2.4 0 Calma 8 Sur 0 913.8 -1 87
2019-03-31 07:00:00 2.2 0 Calma 3 Oeste 0 914 -1.6 87
2019-03-31 06:00:00 2.3 0 Calma 6 Sudoeste 0 914.2 -1.6 86
2019-03-31 05:00:00 2.5 3 Oeste 9 Sudeste 0 914.8 -1.6 84
2019-03-31 03:00:00 4.4 3 Este 7 Este 0 915.8 -1 79
2019-03-31 01:00:00 5.6 0 Calma 10 Este 0 916.4 -0.9 72
2019-03-31 00:00:00 7.8 6 Sudeste 14 Este 0 916.8 -0.1 68
2019-03-30 23:00:00 8.4 14 Este 17 Este 0 916.8 0.7 62
2019-03-30 22:00:00 10 15 Este 23 Sudeste 0 917.3 2 52
2019-03-30 21:00:00 10 5 Este 17 Este 0 916.9 1.8 45
2019-03-30 20:00:00 11.4 19 Este 33 Este 0 916.1 0.9 40
2019-03-30 19:00:00 13.2 24 Este 37 Este 0 915.3 -0.4 35
2019-03-30 18:00:00 15.4 23 Este 31 Este 0 915.1 -1.3 30
2019-03-30 17:00:00 16.3 14 Nordeste 30 Nordeste 0 915.2 -2.1 26
2019-03-30 16:00:00 18.7 6 Noroeste 15 Sudoeste 0 915.7 -2.4 20
2019-03-30 15:00:00 18.2 6 Sudoeste 13 Sur 0 916.4 -2.6 19
2019-03-30 14:00:00 17.2 10 Sudoeste 19 Sur 0 917.3 -2.5 21
2019-03-30 13:00:00 15.7 6 Oeste 15 Oeste 0 918.1 -2 24
2019-03-30 12:00:00 13.9 5 Sudeste 14 Sudoeste 0 919 -1.4 31
2019-03-30 11:00:00 10.7 7 Sudoeste 16 Sudoeste 0 919.8 -0.7 40
2019-03-30 10:00:00 7.7 4 Sudoeste 9 Sudoeste 0 920.1 -0.1 54
2019-03-30 09:00:00 5.3 5 Sur 10 Sudeste 0 920.4 0.1 67
2019-03-30 08:00:00 0.8 8 Sudeste 13 Sudeste 0 920.5 0.3 82
2019-03-30 07:00:00 -0.7 3 Norte 14 Sudeste 0 920.2 -0.4 84
2019-03-30 06:00:00 0 10 Sudeste 13 Sudeste 0 920.3 -0.7 85
2019-03-30 05:00:00 0.9 4 Sur 9 Sudeste 0 920.2 -1.3 82
2019-03-30 04:00:00 1.4 8 Sudeste 10 Sudeste 0 920.6 -1.1 78
2019-03-30 03:00:00 2.7 6 Sudeste 10 Sudeste 0 921 -0.8 75
2019-03-30 02:00:00 3.5 5 Sur 8 Sudeste 0 921.5 -0.2 71
2019-03-30 01:00:00 5.2 6 Sudeste 12 Sur 0 921.7 0.3 65
2019-03-30 00:00:00 6.5 10 Sur 23 Sur 0 921.8 0.8 65
2019-03-29 23:00:00 6.9 9 Sur 14 Sur 0 921.7 1.6 60
2019-03-29 22:00:00 8.3 8 Sur 13 Sur 0 921.4 1.9 54
2019-03-29 21:00:00 9.8 7 Sur 23 Sur 0 921 2 48
2019-03-29 20:00:00 11.6 14 Sudeste 24 Sudeste 0 920.1 0.9 41
2019-03-29 19:00:00 14.7 13 Sur 31 Sur 0 919.5 -0.2 32
2019-03-29 18:00:00 17.2 13 Sur 25 Sudoeste 0 919 -1.4 22
2019-03-29 17:00:00 18.1 12 Sudoeste 26 Sudoeste 0 919.2 -2 18
2019-03-29 16:00:00 18.4 9 Sur 24 Sur 0 919.7 -2.2 19
2019-03-29 15:00:00 17.8 12 Sur 27 Sudoeste 0 920.4 -2.1 19
2019-03-29 14:00:00 17.4 13 Sur 33 Sur 0 921.2 -1.9 21
2019-03-29 13:00:00 15.8 19 Sudoeste 32 Sudoeste 0 921.9 -1.9 25
2019-03-29 12:00:00 15.1 14 Sur 30 Sudoeste 0 922.5 -1.3 28
2019-03-29 11:00:00 12.7 13 Sudoeste 24 Sudoeste 0 923.1 -0.8 32
2019-03-29 10:00:00 8.7 6 Sudoeste 13 Sudoeste 0 923.8 0 39
2019-03-29 09:00:00 5.9 4 Sur 10 Sudoeste 0 923.8 0.3 53
2019-03-29 08:00:00 2.3 6 Sudeste 8 Sudeste 0 923.9 0.6 67
2019-03-29 07:00:00 -0.1 0 Calma 11 Sudeste 0 923.8 0.4 74
2019-03-29 06:00:00 0.3 8 Sudeste 11 Sudeste 0 923.5 -0.1 74
2019-03-29 05:00:00 1.1 4 Sur 9 Sudeste 0 923.3 -0.4 73
2019-03-29 04:00:00 1.9 7 Sudeste 12 Sudeste 0 923.4 -0.2 72
2019-03-29 03:00:00 1.6 8 Sur 11 Sudeste 0 923.6 0 75
2019-03-29 02:00:00 1.4 2 Noroeste 9 Este 0 923.7 0.2 72
2019-03-29 01:00:00 2.5 2 Noroeste 4 Noroeste 0 923.6 0.2 67
2019-03-29 00:00:00 4.1 0 Calma 6 Sur 0 923.6 0.7 60
2019-03-28 23:00:00 6.1 5 Sur 13 Sudoeste 0 923.5 1.3 54
2019-03-28 22:00:00 7.5 6 Sudeste 10 Sudeste 0 923.4 1.5 48
2019-03-28 21:00:00 8.8 3 Este 12 Nordeste 0 922.9 1.4 45
2019-03-28 20:00:00 11.5 8 Nordeste 21 Este 0 922.2 0.7 39
2019-03-28 19:00:00 14.3 13 Este 21 Nordeste 0 921.9 -0.1 33
2019-03-28 18:00:00 15.9 10 Norte 22 Norte 0 921.5 -1 31
2019-03-28 17:00:00 17.4 6 Norte 23 Este 0 921.5 -1.6 27
2019-03-28 16:00:00 16.8 8 Nordeste 18 Noroeste 0 922 -1.8 22
2019-03-28 15:00:00 17 6 Norte 17 Sudoeste 0 922.5 -2 21
2019-03-28 14:00:00 16.6 9 Sudoeste 15 Sudoeste 0 923.1 -1.9 21
2019-03-28 13:00:00 15.2 6 Noroeste 14 Noroeste 0 923.8 -1.4 22
2019-03-28 12:00:00 12.8 3 Oeste 10 Sudoeste 0 924.5 -0.9 30
2019-03-28 11:00:00 9.5 3 Sudoeste 8 Sudoeste 0 925 -0.5 36
2019-03-28 10:00:00 5.9 4 Sudoeste 10 Sudoeste 0 925.2 0.1 46
2019-03-28 09:00:00 2.2 3 Sudoeste 7 Sudoeste 0 925.4 0.6 54
2019-03-28 08:00:00 -1.4 2 Sudeste 7 Sur 0 925.5 0.9 67
2019-03-28 07:00:00 -3.8 0 Calma 8 Sur 0 925.1 0.7 73
2019-03-28 06:00:00 -3.2 3 Sur 8 Sur 0 924.8 0.5 70
2019-03-28 05:00:00 -2.9 0 Calma 5 Norte 0 924.6 0.6 68
2019-03-28 04:00:00 -1.8 3 Oeste 8 Sudeste 0 924.4 0.5 65
2019-03-28 03:00:00 -1.2 2 Sudeste 4 Nordeste 0 924.3 0.9 60
2019-03-28 02:00:00 -0.5 4 Nordeste 5 Nordeste 0 924 0.9 60
2019-03-28 01:00:00 1.6 5 Sur 10 Sudeste 0 923.9 1.2 51
2019-03-28 00:00:00 2.6 5 Sur 9 Sudeste 0 923.4 1.2 47
2019-03-27 23:00:00 4.8 3 Sur 8 Este 0 923.1 1.8 41
2019-03-27 22:00:00 6.4 4 Norte 7 Norte 0 922.7 1.9 36
2019-03-27 21:00:00 7.5 3 Nordeste 10 Norte 0 922.2 1.8 33
2019-03-27 20:00:00 9.8 6 Nordeste 15 Nordeste 0 921.3 0.9 28
2019-03-27 19:00:00 13.8 8 Norte 22 Nordeste 0 920.8 0.5 19
2019-03-27 18:00:00 15.2 10 Norte 27 Norte 0 920.4 -0.3 17
2019-03-27 17:00:00 15.9 10 Nordeste 25 Norte 0 920.4 -0.5 18
2019-03-27 16:00:00 16.5 11 Norte 35 Nordeste 0 920.3 -1.4 18
2019-03-27 15:00:00 15.7 11 Norte 27 Norte 0 920.7 -1.5 19
2019-03-27 14:00:00 15.7 6 Noroeste 17 Norte 0 920.9 -1.5 24
2019-03-27 13:00:00 14.2 5 Oeste 18 Noroeste 0 921.7 -0.8 30
2019-03-27 12:00:00 12.1 5 Sudoeste 14 Oeste 0 922.2 -0.5 36
2019-03-27 11:00:00 8.7 4 Noroeste 9 Norte 0 922.4 -0.2 45
2019-03-27 10:00:00 3.7 4 Sudoeste 10 Sur 0 922.5 0.6 76
2019-03-27 09:00:00 -0.1 5 Sur 12 Sudeste 0 922.7 1 92
2019-03-27 08:00:00 -1.6 3 Sur 8 Sur 0 922.6 1 72
2019-03-27 07:00:00 -4.4 2 Nordeste 4 Norte 0 921.9 0.4 77
2019-03-27 06:00:00 -3.4 2 Sur 8 Sur 0 921.7 0.5 75
2019-03-27 05:00:00 -3.2 5 Sudeste 7 Sur 0 921.6 0.3 70
2019-03-27 04:00:00 -2.6 3 Sudeste 5 Norte 0 921.5 0.5 66
2019-03-27 03:00:00 -1.8 2 Sudoeste 5 Nordeste 0 921.2 0.5 62
2019-03-27 02:00:00 -1 3 Este 8 Sudeste 0 921.3 0.9 58
2019-03-27 01:00:00 0.7 7 Sur 12 Sur 0 921 1.2 50
2019-03-27 00:00:00 1.9 0 Calma 9 Sur 0 920.7 1.4 48
2019-03-26 23:00:00 4.2 6 Sur 10 Sur 0 920.4 1.9 42
2019-03-26 22:00:00 6.7 3 Oeste 17 Nordeste 0 919.8 1.6 35
2019-03-26 21:00:00 8.5 4 Norte 19 Norte 0 919.3 1.4 26
2019-03-26 20:00:00 10 8 Norte 17 Norte 0 918.5 0.7 22
2019-03-26 19:00:00 13.6 10 Norte 20 Nordeste 0 918.2 0.4 17
2019-03-26 18:00:00 15.2 13 Nordeste 27 Nordeste 0 917.9 -0.3 16
2019-03-26 17:00:00 16.1 13 Nordeste 30 Norte 0 917.8 -0.8 14
2019-03-26 16:00:00 16.7 11 Nordeste 23 Nordeste 0 917.8 -1.3 16
2019-03-26 15:00:00 16.6 14 Este 27 Noroeste 0 918.2 -1.4 18
2019-03-26 14:00:00 15.9 8 Noroeste 27 Nordeste 0 918.6 -1.4 29
2019-03-26 13:00:00 14.2 9 Noroeste 24 Noroeste 0 919.1 -1.3 37
2019-03-26 12:00:00 11.7 7 Nordeste 16 Norte 0 919.6 -1.1 42
2019-03-26 11:00:00 9.7 4 Nordeste 11 Nordeste 0 920 -0.5 49
2019-03-26 10:00:00 6.2 4 Sudoeste 8 Oeste 0 920.4 0.5 60
2019-03-26 09:00:00 1.9 3 Sur 6 Sur 0 920.7 1.3 74
2019-03-26 08:00:00 -2 2 Este 4 Sudoeste 0 920.5 1.3 84
2019-03-26 07:00:00 -3.8 2 Sudoeste 6 Sur 0 919.9 0.7 87
2019-03-26 06:00:00 -3.3 0 Calma 5 Norte 0 919.4 0 87
2019-03-26 05:00:00 -2.3 0 Calma 10 Sur 0 919.2 -0.5 85
2019-03-26 04:00:00 -2.2 4 Sudeste 8 Sur 0 919.2 -0.6 87
2019-03-26 03:00:00 -1.4 4 Sur 8 Sur 0 919.4 -0.2 83
2019-03-26 02:00:00 -0.2 2 Noroeste 7 Sur 0 919.7 0.4 80
2019-03-26 01:00:00 1 5 Sur 8 Sur 0 919.8 1 75
2019-03-26 00:00:00 2.7 4 Noroeste 7 Norte 0 919.6 1.1 69
2019-03-25 23:00:00 4.2 4 Norte 14 Norte 0 919.3 1.4 65
2019-03-25 22:00:00 5.6 6 Norte 17 Norte 0 918.8 1.3 60
2019-03-25 21:00:00 6.8 4 Norte 18 Norte 0 918.5 1.2 55
2019-03-25 20:00:00 8.5 8 Norte 31 Norte 0 917.9 0.5 49
2019-03-25 19:00:00 10.8 18 Norte 32 Nordeste 0 917.5 -0.3 41
2019-03-25 18:00:00 13.2 14 Nordeste 31 Norte 0 917.3 -0.9 35
2019-03-25 17:00:00 14.7 14 Nordeste 27 Norte 0 917.4 -1.7 33
2019-03-25 16:00:00 16.3 8 Norte 27 Norte 0 917.8 -2.1 33
2019-03-25 15:00:00 16 10 Norte 26 Nordeste 0 918.2 -2.4 37
2019-03-25 14:00:00 15.8 9 Norte 22 Norte 0 919.1 -2 38
2019-03-25 13:00:00 14.3 8 Nordeste 24 Norte 0 919.9 -1.5 41
2019-03-25 12:00:00 13.6 7 Norte 22 Noroeste 0 920.6 -0.8 43
2019-03-25 11:00:00 12 7 Norte 22 Norte 0 921.1 -0.2 48
2019-03-25 10:00:00 8.8 2 Sur 7 Sudoeste 0 921.4 0.4 51
2019-03-25 09:00:00 4.3 4 Sudeste 8 Sur 0 921.4 0.6 63
2019-03-25 08:00:00 -0.2 0 Calma 4 Norte 0 921.3 0.5 77
2019-03-25 07:00:00 -1.8 3 Sudoeste 3 Sudoeste 0 921 -0.1 79
2019-03-25 06:00:00 -1.2 3 Sudeste 4 Sudeste 0 920.8 -0.4 76
2019-03-25 05:00:00 -0.5 2 Norte 5 Sur 0 920.8 -0.5 75
2019-03-25 04:00:00 0.5 2 Sur 4 Sur 0 921.1 -0.4 71
2019-03-25 03:00:00 1.3 3 Oeste 5 Oeste 0 921.2 -0.5 68
2019-03-25 02:00:00 2.1 2 Este 5 Oeste 0 921.3 -0.4 65
2019-03-25 01:00:00 3.7 2 Noroeste 4 Sur 0 921.5 0 59
2019-03-25 00:00:00 5 0 Calma 8 Este 0 921.7 0.9 53
2019-03-24 23:00:00 6.5 2 Sur 12 Sur 0 921.7 1.4 49
2019-03-24 22:00:00 8.9 3 Sudoeste 9 Sur 0 921.5 1.5 43
2019-03-24 21:00:00 10.8 4 Sur 12 Nordeste 0 920.8 1 36
2019-03-24 20:00:00 13.6 7 Norte 16 Nordeste 0 920.3 0.6 31
2019-03-24 19:00:00 16.8 11 Nordeste 19 Nordeste 0 920 -0.1 23
2019-03-24 18:00:00 17.7 8 Norte 22 Este 0 919.8 -0.6 22
2019-03-24 17:00:00 19.7 9 Este 29 Nordeste 0 919.7 -1.4 20
2019-03-24 16:00:00 20 10 Este 28 Nordeste 0 920.1 -1.8 19
2019-03-24 15:00:00 20.7 11 Sudeste 27 Este 0 920.4 -2.1 18
2019-03-24 14:00:00 19.3 10 Este 27 Este 0 921.1 -2 20
2019-03-24 13:00:00 19.2 10 Este 24 Este 0 921.9 -1.7 21
2019-03-24 12:00:00 16.8 4 Oeste 8 Sudoeste 0 922.5 -1 26
2019-03-24 11:00:00 12 4 Sudoeste 8 Sur 0 923.1 -0.3 41
2019-03-24 10:00:00 7.7 5 Sur 9 Sudeste 0 923.6 0.5 58
2019-03-24 09:00:00 2.6 2 Oeste 5 Sudoeste 0 923.5 0.4 68
2019-03-24 08:00:00 -0.9 2 Sudeste 6 Sur 0 923.4 0.4 78
2019-03-24 07:00:00 -2.6 0 Calma 5 Sudoeste 0 923.1 0.1 81
2019-03-24 06:00:00 -1.9 5 Sur 7 Sur 0 923.1 0.1 80
2019-03-24 05:00:00 -1.3 4 Sur 6 Sur 0 923 0 79
2019-03-24 04:00:00 -0.6 2 Norte 7 Sur 0 923 -0.3 80
2019-03-24 03:00:00 0 3 Nordeste 6 Sudoeste 0 923 -0.3 78
2019-03-24 02:00:00 1.4 4 Sur 6 Sur 0 923 -0.3 71
2019-03-24 01:00:00 2.9 2 Oeste 7 Nordeste 0 923.3 0.2 69
2019-03-24 00:00:00 4.1 3 Norte 8 Sur 0 923.3 0.6 65
2019-03-23 23:00:00 5.8 8 Sudeste 10 Sudeste 0 923.3 1.1 59
2019-03-23 22:00:00 7.9 3 Sudoeste 11 Sudeste 0 923.1 1.3 52
2019-03-23 21:00:00 11.3 7 Sur 13 Sudoeste 0 922.7 1.3 45
2019-03-23 20:00:00 13.5 6 Sur 19 Este 0 922.2 0.8 39
2019-03-23 19:00:00 15.3 14 Nordeste 24 Nordeste 0 921.8 0.3 35
2019-03-23 18:00:00 16.7 17 Este 27 Este 0 921.4 -0.5 32
2019-03-23 17:00:00 17.8 18 Este 30 Este 0 921.4 -1.3 28
2019-03-23 16:00:00 18 12 Este 31 Este 0 921.5 -2.1 28
2019-03-23 15:00:00 18.1 16 Este 33 Este 0 921.9 -2.1 29
2019-03-23 14:00:00 17.5 15 Este 33 Este 0 922.7 -2 28
2019-03-23 13:00:00 17.2 19 Sudeste 30 Nordeste 0 923.6 -1.6 30
2019-03-23 12:00:00 15.7 12 Nordeste 23 Este 0 924 -1.3 35
2019-03-23 11:00:00 12.2 4 Noroeste 9 Norte 0 924.7 -0.5 49
2019-03-23 10:00:00 7.5 0 Calma 4 Sur 0 925.2 0.2 62
2019-03-23 09:00:00 2.7 2 Oeste 5 Sur 0 925.3 0.7 75
2019-03-23 08:00:00 -0.1 3 Sur 6 Sur 0 925.2 0.7 85
2019-03-23 07:00:00 -1.6 0 Calma 7 Sudeste 0 925 0.4 85
2019-03-23 06:00:00 -1.1 6 Sur 9 Sur 0 924.6 -0.4 86
2019-03-23 05:00:00 -0.7 3 Nordeste 5 Sur 0 924.5 -0.5 85
2019-03-23 04:00:00 0.3 4 Sudeste 5 Sudeste 0 924.6 -0.4 81
2019-03-23 03:00:00 0.7 2 Sur 4 Sur 0 925 -0.3 78
2019-03-23 02:00:00 1.4 0 Calma 4 Norte 0 925 -0.3 76
2019-03-23 01:00:00 2.9 0 Calma 7 Sudoeste 0 925 0 72
2019-03-23 00:00:00 4.2 2 Este 6 Sur 0 925.3 0.9 67
2019-03-22 23:00:00 6.6 6 Sudeste 12 Este 0 925.3 1.7 60
2019-03-22 22:00:00 7.8 6 Sudeste 14 Este 0 925 1.9 55
2019-03-22 21:00:00 10.1 3 Sudeste 28 Este 0 924.4 1.7 49
2019-03-22 20:00:00 11.4 16 Este 23 Este 0 923.6 0.9 45
2019-03-22 19:00:00 13.9 13 Este 23 Este 0 923.1 0 40
2019-03-22 18:00:00 15 14 Este 27 Este 0 922.7 -0.9 36
2019-03-22 17:00:00 15.9 7 Este 27 Nordeste 0 922.7 -1.5 34
2019-03-22 16:00:00 16 12 Este 27 Sudeste 0 923.1 -1.7 33
2019-03-22 15:00:00 16 15 Este 27 Este 0 923.6 -1.5 32
2019-03-22 14:00:00 15.2 13 Este 32 Sudeste 0 924.2 -1.3 32
2019-03-22 13:00:00 14.3 16 Este 29 Este 0 924.8 -0.9 32
2019-03-22 12:00:00 13 5 Norte 12 Norte 0 925.1 -0.7 33
2019-03-22 11:00:00 9.8 4 Noroeste 10 Nordeste 0 925.5 -0.1 41
2019-03-22 10:00:00 4.9 3 Noroeste 5 Norte 0 925.7 0.5 55
2019-03-22 09:00:00 1.1 3 Sur 6 Sur 0 925.8 0.9 67
2019-03-22 08:00:00 -3.2 2 Oeste 5 Sudeste 0 925.6 0.8 79
2019-03-22 07:00:00 -4.1 2 Sudeste 6 Sudeste 0 925.2 0.6 80
2019-03-22 06:00:00 -3.8 5 Sudeste 7 Sudeste 0 924.9 0.3 79
2019-03-22 05:00:00 -3.1 4 Sur 6 Sudeste 0 924.8 0.2 76
2019-03-22 04:00:00 -2.4 2 Sudoeste 5 Oeste 0 924.6 0 73
2019-03-22 03:00:00 -1.7 2 Este 5 Nordeste 0 924.6 0 70
2019-03-22 02:00:00 -0.8 0 Calma 4 Norte 0 924.6 -0.1 66
2019-03-22 01:00:00 1.1 3 Sur 10 Sur 0 924.6 0.2 59
2019-03-22 00:00:00 1.9 4 Sudoeste 8 Sur 0 924.6 0.6 56
2019-03-21 23:00:00 4 0 Calma 13 Este 0 924.7 1.3 47
2019-03-21 22:00:00 6.3 10 Este 18 Este 0 924.4 1.5 40
2019-03-21 21:00:00 6.9 12 Este 18 Este 0 924 1.7 38
2019-03-21 20:00:00 8.1 10 Nordeste 21 Nordeste 0 923.4 1.2 35
2019-03-21 19:00:00 10.6 13 Nordeste 22 Nordeste 0 922.9 0.4 33
2019-03-21 18:00:00 12.1 14 Nordeste 24 Nordeste 0 922.3 -0.7 26
2019-03-21 17:00:00 13.3 8 Sudeste 21 Este 0 922.2 -1.5 24
2019-03-21 16:00:00 13.5 13 Este 22 Este 0 922.5 -1.9 24
2019-03-21 15:00:00 13.3 7 Norte 21 Norte 0 923 -1.9 30
2019-03-21 14:00:00 12 4 Este 21 Nordeste 0 923.7 -1.7 34
2019-03-21 13:00:00 11.9 6 Noroeste 18 Norte 0 924.4 -1.2 39
2019-03-21 12:00:00 10.2 6 Norte 14 Noroeste 0 924.9 -0.7 42
2019-03-21 11:00:00 7.1 5 Noroeste 10 Noroeste 0 925.4 -0.1 53
2019-03-21 10:00:00 3.5 3 Sudoeste 7 Sudoeste 0 925.6 0.6 62
2019-03-21 09:00:00 -0.4 2 Sudoeste 4 Sudoeste 0 925.6 0.7 71
2019-03-21 08:00:00 -3.9 0 Calma 7 Sur 0 925.5 0.8 82
2019-03-21 07:00:00 -5 3 Sudeste 8 Sur 0 925 0.5 81
2019-03-21 06:00:00 -4.7 2 Este 5 Sudeste 0 924.9 -0.1 82
2019-03-21 05:00:00 -4.2 0 Calma 5 Sudeste 0 924.7 -0.5 81
2019-03-21 04:00:00 -3.7 2 Sudeste 8 Sudeste 0 924.5 -0.7 76
2019-03-21 03:00:00 -2.5 0 Calma 5 Sur 0 925 -0.3 74
2019-03-21 02:00:00 -0.9 4 Sur 8 Sur 0 925.2 -0.1 69
2019-03-21 01:00:00 1.3 4 Sur 9 Norte 0 925.2 0.2 66
2019-03-21 00:00:00 3 2 Oeste 14 Norte 0 925.3 0.9 64
2019-03-20 23:00:00 3.9 7 Norte 21 Norte 0 925.3 1.5 59
2019-03-20 22:00:00 5 10 Norte 20 Norte 0 925 1.6 50
2019-03-20 21:00:00 5.9 12 Nordeste 21 Norte 0 924.4 1.5 42
2019-03-20 20:00:00 7.2 7 Nordeste 18 Norte 0 923.8 1.1 37
2019-03-20 19:00:00 9.6 9 Norte 21 Norte 0 923.4 0.5 32
2019-03-20 18:00:00 11.3 8 Norte 25 Nordeste 0 922.9 -0.5 28
2019-03-20 17:00:00 11.5 9 Norte 22 Norte 0 922.7 -1.1 29
2019-03-20 16:00:00 11.6 10 Nordeste 27 Norte 0 922.9 -1.6 32
2019-03-20 15:00:00 11.3 9 Norte 25 Nordeste 0 923.4 -1.5 37
2019-03-20 14:00:00 10.6 7 Nordeste 18 Nordeste 0 923.8 -1.3 39
2019-03-20 13:00:00 9.9 5 Noroeste 17 Norte 0 924.5 -0.8 44
2019-03-20 12:00:00 8.6 6 Noroeste 15 Noroeste 0 924.9 0 50
2019-03-20 11:00:00 6.8 5 Norte 14 Norte 0 925.1 0.3 61
2019-03-20 10:00:00 4.2 5 Norte 12 Norte 0 925.3 1.1 70
2019-03-20 09:00:00 2.1 4 Sur 10 Sur 0 924.9 1 78
2019-03-20 08:00:00 -1.5 3 Sur 7 Sur 0 924.8 1.1 88
2019-03-20 07:00:00 -2.2 4 Sur 9 Sur 0 924.2 0.2 88
2019-03-20 06:00:00 -1.5 3 Sudeste 8 Sudeste 0 923.9 -0.3 86
2019-03-20 05:00:00 -1.4 6 Sudeste 7 Sudeste 0 923.7 -0.7 87
2019-03-20 04:00:00 -0.7 4 Sudeste 9 Sudeste 0 924 -0.3 85
2019-03-20 03:00:00 -0.5 3 Sur 6 Sudoeste 0 924.2 -0.1 81
2019-03-20 02:00:00 0.4 3 Nordeste 11 Norte 0 924.4 0.7 77
2019-03-20 01:00:00 1.9 4 Noroeste 22 Norte 0 924.3 0.9 73
2019-03-20 00:00:00 2.6 8 Norte 19 Norte 0 924.3 1.5 71
2019-03-19 23:00:00 3.1 8 Norte 30 Noroeste 0 923.7 1.4 69
2019-03-19 22:00:00 3.9 9 Norte 28 Norte 0 923.4 1.5 66
2019-03-19 21:00:00 5 10 Norte 41 Norte 0 922.8 1.5 62
2019-03-19 20:00:00 5.6 17 Norte 35 Norte 0 922.3 1.6 57
2019-03-19 19:00:00 7.5 12 Norte 36 Nordeste 0 921.9 1.2 52
2019-03-19 18:00:00 7.9 11 Norte 38 Nordeste 0 921.3 0.5 48
2019-03-19 17:00:00 8.6 21 Norte 41 Norte 0 920.7 -0.2 48
2019-03-19 16:00:00 9.1 15 Norte 39 Norte 0 920.7 -0.3 48
2019-03-19 15:00:00 8.1 22 Norte 41 Norte 0 920.8 0 54
2019-03-19 14:00:00 9.2 18 Norte 42 Nordeste 0 920.9 -0.2 51
2019-03-19 13:00:00 8.8 19 Norte 42 Norte 0 921 -0.3 49
2019-03-19 12:00:00 9.4 16 Norte 40 Norte 0 920.8 -0.2 55
2019-03-19 11:00:00 6.7 10 Noroeste 26 Noroeste 0 921.1 0.2 70
2019-03-19 10:00:00 4.9 8 Norte 27 Norte 0 921.3 0.4 78
2019-03-19 09:00:00 3.9 7 Noroeste 20 Norte 0 921 0.1 87
2019-03-19 08:00:00 2.9 6 Noroeste 14 Noroeste 0 920.9 -0.2 87
2019-03-19 07:00:00 2.3 3 Este 8 Este 0 920.9 -0.6 90
2019-03-19 06:00:00 2.2 6 Sudeste 8 Sudeste 0 920.9 -0.9 92
2019-03-19 05:00:00 2.1 2 Oeste 14 Noroeste 0.4 921.1 -1 90
2019-03-19 04:00:00 3 7 Norte 21 Noroeste 0 921.5 -0.9 84
2019-03-19 03:00:00 3.9 5 Norte 16 Este 0 921.8 -0.7 71
2019-03-19 02:00:00 3 4 Nordeste 13 Norte 0 922.1 -0.8 76
2019-03-19 01:00:00 3.3 2 Norte 16 Norte 0 922.4 -0.1 73
2019-03-19 00:00:00 3.3 9 Norte 23 Norte 0 922.5 0.5 74